createdAt,value
2022-08-26T00:01:03.402Z,26.52
2022-08-26T00:03:31.407Z,26.45
2022-08-26T00:06:00.219Z,26.46
2022-08-26T00:08:27.414Z,26.48
2022-08-26T00:10:54.878Z,26.43
2022-08-26T00:13:22.508Z,26.40
2022-08-26T00:15:51.251Z,26.37
2022-08-26T00:18:22.189Z,26.30
2022-08-26T00:20:49.867Z,26.32
2022-08-26T00:23:17.820Z,26.24
2022-08-26T00:25:45.326Z,26.28
2022-08-26T00:28:12.654Z,26.21
2022-08-26T00:30:41.009Z,26.22
2022-08-26T00:33:08.738Z,26.06
2022-08-26T00:35:36.127Z,26.14
2022-08-26T00:38:03.562Z,26.17
2022-08-26T00:40:35.856Z,26.10
2022-08-26T00:43:07.158Z,26.06
2022-08-26T00:45:57.076Z,25.98
2022-08-26T00:48:24.839Z,26.11
2022-08-26T00:50:55.852Z,25.91
2022-08-26T00:53:27.822Z,25.97
2022-08-26T00:55:58.127Z,25.89
2022-08-26T00:58:25.505Z,25.98
2022-08-26T01:00:54.087Z,25.87
2022-08-26T01:03:23.006Z,25.72
2022-08-26T01:05:52.191Z,25.84
2022-08-26T01:08:23.147Z,25.85
2022-08-26T01:10:52.377Z,25.80
2022-08-26T01:13:23.992Z,25.72
2022-08-26T01:15:52.057Z,25.78
2022-08-26T01:18:20.515Z,25.85
2022-08-26T01:20:50.989Z,25.80
2022-08-26T01:23:18.331Z,25.59
2022-08-26T01:25:50.995Z,25.67
2022-08-26T01:28:22.818Z,25.62
2022-08-26T01:30:51.674Z,25.70
2022-08-26T01:33:20.730Z,25.66
2022-08-26T01:35:48.562Z,25.61
2022-08-26T01:38:16.467Z,25.59
2022-08-26T01:40:44.095Z,25.70
2022-08-26T01:43:14.771Z,25.63
2022-08-26T01:45:42.638Z,25.41
2022-08-26T01:48:11.692Z,25.47
2022-08-26T01:50:41.626Z,25.36
2022-08-26T01:53:11.708Z,25.31
2022-08-26T01:55:39.891Z,25.35
2022-08-26T01:58:08.581Z,25.38
2022-08-26T02:00:36.851Z,25.37
2022-08-26T02:03:17.200Z,25.24
2022-08-26T02:05:46.050Z,25.22
2022-08-26T02:08:18.999Z,25.16
2022-08-26T02:10:55.018Z,25.06
2022-08-26T02:13:22.539Z,25.13
2022-08-26T02:15:49.773Z,25.19
2022-08-26T02:18:17.173Z,25.19
2022-08-26T02:20:45.002Z,25.01
2022-08-26T02:23:14.399Z,25.13
2022-08-26T02:25:44.832Z,25.16
2022-08-26T02:28:12.310Z,25.05
2022-08-26T02:30:40.039Z,25.08
2022-08-26T02:33:07.568Z,25.00
2022-08-26T02:35:35.596Z,25.13
2022-08-26T02:38:03.001Z,25.06
2022-08-26T02:40:40.542Z,25.04
2022-08-26T02:43:08.740Z,25.08
2022-08-26T02:45:36.118Z,25.04
2022-08-26T02:48:05.773Z,25.03
2022-08-26T02:50:34.286Z,25.01
2022-08-26T02:53:01.942Z,24.77
2022-08-26T02:55:30.026Z,24.85
2022-08-26T02:57:57.248Z,24.88
2022-08-26T03:00:25.860Z,24.84
2022-08-26T03:02:53.708Z,24.87
2022-08-26T03:05:22.161Z,24.96
2022-08-26T03:07:51.540Z,24.90
2022-08-26T03:10:19.310Z,24.72
2022-08-26T03:12:47.338Z,24.73
2022-08-26T03:15:17.952Z,24.78
2022-08-26T03:17:46.503Z,24.59
2022-08-26T03:20:15.537Z,24.58
2022-08-26T03:22:45.038Z,24.57
2022-08-26T03:25:13.483Z,24.49
2022-08-26T03:27:43.021Z,24.55
2022-08-26T03:30:29.697Z,24.51
2022-08-26T03:32:57.226Z,24.56
2022-08-26T03:35:25.813Z,24.46
2022-08-26T03:37:53.419Z,24.51
2022-08-26T03:40:21.206Z,24.58
2022-08-26T03:42:49.807Z,24.25
2022-08-26T03:45:17.450Z,24.27
2022-08-26T03:47:45.011Z,24.43
2022-08-26T03:50:14.280Z,24.47
2022-08-26T03:52:43.909Z,24.50
2022-08-26T03:55:11.809Z,24.39
2022-08-26T03:57:39.353Z,24.30
2022-08-26T04:00:08.081Z,24.39
2022-08-26T04:02:35.870Z,24.35
2022-08-26T04:05:03.602Z,24.32
2022-08-26T04:07:32.101Z,24.07
2022-08-26T04:10:00.401Z,24.14
2022-08-26T04:12:28.015Z,24.22
2022-08-26T04:14:55.314Z,24.30
2022-08-26T04:17:26.223Z,24.26
2022-08-26T04:19:53.901Z,24.28
2022-08-26T04:22:24.057Z,24.32
2022-08-26T04:24:52.441Z,24.21
2022-08-26T04:27:20.069Z,24.13
2022-08-26T04:29:47.692Z,24.19
2022-08-26T04:32:15.723Z,24.12
2022-08-26T04:34:43.980Z,24.17
2022-08-26T04:37:13.246Z,24.13
2022-08-26T04:39:40.997Z,24.19
2022-08-26T04:42:08.450Z,24.19
2022-08-26T04:44:36.935Z,24.32
2022-08-26T04:47:04.722Z,24.22
2022-08-26T04:49:35.277Z,24.18
2022-08-26T04:52:03.622Z,24.22
2022-08-26T04:54:32.288Z,24.32
2022-08-26T04:56:59.811Z,24.40
2022-08-26T04:59:26.987Z,24.41
2022-08-26T05:02:03.757Z,24.39
2022-08-26T05:04:33.070Z,24.48
2022-08-26T05:07:02.687Z,24.52
2022-08-26T05:09:30.437Z,24.53
2022-08-26T05:11:57.773Z,24.59
2022-08-26T05:14:25.233Z,24.67
2022-08-26T05:16:52.596Z,24.67
2022-08-26T05:19:19.875Z,24.70
2022-08-26T05:21:49.129Z,24.82
2022-08-26T05:24:16.343Z,24.89
2022-08-26T05:26:44.598Z,24.99
2022-08-26T05:29:12.481Z,25.04
2022-08-26T05:31:39.666Z,24.85
2022-08-26T05:34:08.452Z,25.16
2022-08-26T05:36:36.308Z,25.21
2022-08-26T05:39:04.714Z,25.34
2022-08-26T05:41:36.516Z,25.41
2022-08-26T05:44:07.111Z,25.50
2022-08-26T05:46:34.679Z,25.61
2022-08-26T05:49:02.881Z,25.61
2022-08-26T05:51:30.559Z,25.69
2022-08-26T05:53:58.612Z,25.82
2022-08-26T05:56:27.758Z,25.92
2022-08-26T05:58:55.890Z,25.93
2022-08-26T06:01:25.654Z,26.02
2022-08-26T06:03:54.771Z,26.00
2022-08-26T06:06:27.915Z,25.96
2022-08-26T06:08:59.315Z,26.08
2022-08-26T06:11:26.901Z,26.10
2022-08-26T06:13:54.453Z,26.37
2022-08-26T06:16:23.548Z,26.41
2022-08-26T06:18:52.033Z,26.37
2022-08-26T06:21:20.597Z,26.58
2022-08-26T06:24:07.211Z,26.72
2022-08-26T06:26:35.372Z,26.75
2022-08-26T06:29:04.771Z,26.85
2022-08-26T06:31:32.957Z,26.88
2022-08-26T06:34:00.253Z,27.10
2022-08-26T06:36:28.629Z,27.23
2022-08-26T06:38:56.847Z,27.51
2022-08-26T06:41:24.046Z,27.85
2022-08-26T06:43:52.687Z,28.21
2022-08-26T06:46:21.644Z,28.58
2022-08-26T06:48:49.742Z,28.94
2022-08-26T06:51:19.604Z,29.20
2022-08-26T06:53:50.295Z,29.57
2022-08-26T06:56:22.781Z,29.79
2022-08-26T06:58:51.649Z,30.01
2022-08-26T07:01:20.526Z,30.21
2022-08-26T07:03:48.426Z,30.51
2022-08-26T07:06:18.537Z,30.63
2022-08-26T07:08:49.758Z,30.69
2022-08-26T07:11:17.123Z,31.00
2022-08-26T07:13:44.451Z,31.30
2022-08-26T07:16:12.932Z,31.22
2022-08-26T07:18:42.109Z,31.26
2022-08-26T07:21:13.539Z,31.66
2022-08-26T07:23:41.634Z,31.66
2022-08-26T07:26:16.278Z,31.92
2022-08-26T07:28:44.185Z,31.96
2022-08-26T07:31:11.895Z,32.16
2022-08-26T07:33:39.503Z,32.14
2022-08-26T07:36:08.973Z,32.38
2022-08-26T07:38:36.642Z,32.54
2022-08-26T07:41:03.937Z,32.42
2022-08-26T07:43:31.483Z,32.50
2022-08-26T07:45:58.660Z,32.60
2022-08-26T07:48:25.861Z,32.76
2022-08-26T07:50:53.805Z,32.81
2022-08-26T07:53:21.481Z,32.72
2022-08-26T07:55:51.474Z,32.98
2022-08-26T07:58:19.720Z,32.99
2022-08-26T08:00:47.528Z,33.41
2022-08-26T08:03:15.758Z,33.41
2022-08-26T08:05:43.902Z,33.14
2022-08-26T08:08:26.293Z,33.55
2022-08-26T08:10:55.762Z,33.38
2022-08-26T08:13:23.055Z,33.39
2022-08-26T08:15:51.061Z,33.90
2022-08-26T08:18:20.393Z,33.66
2022-08-26T08:20:54.666Z,33.92
2022-08-26T08:23:32.835Z,33.63
2022-08-26T08:26:01.536Z,33.88
2022-08-26T08:28:28.921Z,33.98
2022-08-26T08:30:57.060Z,33.87
2022-08-26T08:33:26.161Z,34.02
2022-08-26T08:35:53.323Z,34.06
2022-08-26T08:38:20.760Z,34.33
2022-08-26T08:40:47.971Z,34.37
2022-08-26T08:43:15.915Z,34.29
2022-08-26T08:45:50.180Z,34.60
2022-08-26T08:48:27.841Z,34.62
2022-08-26T08:51:14.465Z,34.54
2022-08-26T08:53:43.275Z,34.69
2022-08-26T08:56:17.809Z,34.75
2022-08-26T08:59:03.557Z,34.79
2022-08-26T09:01:42.247Z,34.51
2022-08-26T09:04:17.261Z,34.63
2022-08-26T09:06:45.868Z,34.56
2022-08-26T09:09:27.592Z,34.68
2022-08-26T09:11:58.246Z,34.95
2022-08-26T09:14:25.595Z,34.75
2022-08-26T09:17:03.941Z,35.03
2022-08-26T09:19:40.631Z,35.09
2022-08-26T09:22:09.505Z,34.82
2022-08-26T09:24:42.146Z,35.33
2022-08-26T09:27:34.617Z,35.14
2022-08-26T09:30:05.540Z,35.06
2022-08-26T09:32:35.225Z,35.04
2022-08-26T09:35:04.551Z,34.87
2022-08-26T09:37:33.860Z,35.20
2022-08-26T09:40:19.117Z,35.30
2022-08-26T09:42:48.221Z,35.17
2022-08-26T09:45:15.533Z,35.22
2022-08-26T09:47:47.356Z,35.03
2022-08-26T09:50:31.593Z,35.47
2022-08-26T09:53:09.697Z,35.80
2022-08-26T09:55:42.036Z,35.32
2022-08-26T09:58:12.761Z,35.82
2022-08-26T10:00:41.615Z,35.86
2022-08-26T10:03:11.097Z,35.69
2022-08-26T10:05:42.299Z,35.83
2022-08-26T10:08:18.161Z,35.59
2022-08-26T10:10:45.867Z,35.62
2022-08-26T10:13:23.541Z,35.90
2022-08-26T10:15:59.781Z,35.78
2022-08-26T10:18:39.938Z,35.95
2022-08-26T10:21:14.869Z,35.58
2022-08-26T10:23:46.952Z,35.63
2022-08-26T10:26:16.864Z,35.72
2022-08-26T10:28:57.285Z,36.07
2022-08-26T10:31:27.540Z,36.30
2022-08-26T10:33:58.785Z,36.22
2022-08-26T10:37:10.652Z,35.91
2022-08-26T10:39:43.869Z,36.28
2022-08-26T10:42:18.051Z,36.40
2022-08-26T10:44:45.833Z,36.35
2022-08-26T10:47:16.990Z,36.63
2022-08-26T10:49:45.997Z,36.59
2022-08-26T10:52:36.419Z,36.71
2022-08-26T10:55:16.350Z,36.23
2022-08-26T10:57:50.268Z,36.38
2022-08-26T11:00:56.609Z,36.65
2022-08-26T11:03:24.610Z,36.45
2022-08-26T11:06:11.225Z,36.43
2022-08-26T11:08:45.499Z,36.22
2022-08-26T11:11:12.908Z,36.84
2022-08-26T11:13:58.485Z,36.80
2022-08-26T11:16:36.608Z,36.47
2022-08-26T11:19:11.237Z,36.66
2022-08-26T11:21:43.750Z,36.68
2022-08-26T11:24:30.542Z,36.68
2022-08-26T11:26:59.281Z,36.67
2022-08-26T11:29:46.343Z,36.84
2022-08-26T11:32:25.041Z,37.02
2022-08-26T11:34:57.947Z,36.68
2022-08-26T11:37:32.254Z,36.53
2022-08-26T11:39:59.729Z,36.65
2022-08-26T11:42:35.956Z,36.01
2022-08-26T11:45:32.388Z,36.29
2022-08-26T11:48:18.874Z,36.24
2022-08-26T11:51:04.961Z,36.43
2022-08-26T11:53:33.950Z,36.29
2022-08-26T11:56:02.135Z,36.34
2022-08-26T11:58:29.530Z,36.23
2022-08-26T12:00:58.430Z,36.44
2022-08-26T12:03:46.205Z,36.59
2022-08-26T12:06:28.475Z,36.00
2022-08-26T12:08:56.989Z,36.43
2022-08-26T12:11:25.689Z,36.65
2022-08-26T12:13:56.004Z,36.66
2022-08-26T12:16:24.295Z,36.74
2022-08-26T12:18:52.535Z,36.55
2022-08-26T12:21:29.007Z,36.87
2022-08-26T12:24:02.206Z,36.61
2022-08-26T12:26:30.913Z,36.37
2022-08-26T12:29:01.238Z,36.68
2022-08-26T12:31:36.711Z,36.68
2022-08-26T12:34:05.141Z,36.66
2022-08-26T12:39:33.518Z,36.64
2022-08-26T12:42:01.893Z,36.23
2022-08-26T12:44:35.312Z,36.13
2022-08-26T12:47:04.381Z,36.30
2022-08-26T12:49:32.231Z,36.59
2022-08-26T12:51:59.481Z,36.57
2022-08-26T12:54:47.017Z,36.77
2022-08-26T12:57:14.263Z,36.82
2022-08-26T12:59:41.751Z,36.80
2022-08-26T13:02:09.070Z,36.99
2022-08-26T13:04:41.106Z,36.95
2022-08-26T13:07:12.565Z,36.93
2022-08-26T13:09:39.767Z,36.82
2022-08-26T13:12:07.036Z,36.63
2022-08-26T13:14:34.531Z,36.82
2022-08-26T13:17:02.128Z,36.93
2022-08-26T13:19:32.991Z,36.84
2022-08-26T13:22:00.606Z,36.57
2022-08-26T13:24:38.614Z,36.16
2022-08-26T13:27:06.848Z,36.47
2022-08-26T13:29:34.071Z,36.48
2022-08-26T13:32:01.379Z,36.60
2022-08-26T13:34:28.867Z,36.64
2022-08-26T13:36:56.521Z,36.68
2022-08-26T13:39:24.153Z,36.27
2022-08-26T13:41:51.724Z,36.25
2022-08-26T13:44:19.150Z,36.35
2022-08-26T13:46:46.437Z,36.50
2022-08-26T13:49:14.121Z,35.78
2022-08-26T13:51:41.884Z,35.93
2022-08-26T13:54:09.118Z,36.10
2022-08-26T13:56:37.571Z,36.06
2022-08-26T13:59:05.652Z,36.28
2022-08-26T14:01:34.689Z,36.04
2022-08-26T14:04:03.178Z,36.07
2022-08-26T14:06:30.578Z,36.01
2022-08-26T14:08:57.873Z,35.85
2022-08-26T14:11:25.366Z,35.95
2022-08-26T14:13:52.575Z,36.00
2022-08-26T14:16:22.174Z,36.13
2022-08-26T14:18:50.989Z,36.15
2022-08-26T14:21:18.634Z,35.85
2022-08-26T14:23:46.150Z,35.91
2022-08-26T14:26:19.035Z,35.97
2022-08-26T14:29:02.520Z,35.82
2022-08-26T14:31:31.434Z,35.86
2022-08-26T14:33:59.796Z,35.73
2022-08-26T14:36:32.026Z,35.30
2022-08-26T14:39:01.934Z,35.51
2022-08-26T14:41:30.078Z,35.11
2022-08-26T14:44:00.479Z,35.32
2022-08-26T14:46:29.113Z,35.70
2022-08-26T14:49:01.579Z,35.56
2022-08-26T14:51:30.002Z,35.48
2022-08-26T14:54:12.399Z,35.44
2022-08-26T14:56:44.050Z,35.26
2022-08-26T14:59:11.645Z,35.35
2022-08-26T15:01:39.008Z,35.36
2022-08-26T15:04:06.797Z,35.49
2022-08-26T15:06:34.133Z,35.32
2022-08-26T15:09:01.403Z,35.03
2022-08-26T15:11:28.912Z,35.00
2022-08-26T15:13:56.110Z,35.08
2022-08-26T15:16:23.791Z,35.17
2022-08-26T15:18:51.746Z,35.21
2022-08-26T15:21:19.442Z,35.24
2022-08-26T15:23:47.818Z,35.22
2022-08-26T15:26:15.801Z,35.25
2022-08-26T15:28:43.067Z,35.30
2022-08-26T15:31:10.344Z,35.15
2022-08-26T15:33:38.250Z,35.19
2022-08-26T15:36:06.046Z,35.12
2022-08-26T15:38:37.378Z,35.01
2022-08-26T15:41:05.373Z,35.17
2022-08-26T15:43:32.802Z,35.12
2022-08-26T15:46:00.048Z,34.75
2022-08-26T15:48:27.571Z,34.81
2022-08-26T15:50:56.313Z,34.78
2022-08-26T15:53:23.628Z,34.72
2022-08-26T15:55:52.754Z,34.85
2022-08-26T15:58:20.271Z,34.85
2022-08-26T16:00:47.538Z,34.73
2022-08-26T16:03:14.972Z,34.63
2022-08-26T16:05:43.626Z,34.58
2022-08-26T16:08:11.103Z,34.50
2022-08-26T16:10:39.324Z,34.43
2022-08-26T16:13:08.432Z,34.51
2022-08-26T16:15:37.961Z,34.48
2022-08-26T16:18:05.817Z,34.32
2022-08-26T16:20:33.963Z,34.23
2022-08-26T16:23:01.468Z,34.18
2022-08-26T16:25:29.284Z,34.13
2022-08-26T16:27:56.476Z,34.12
2022-08-26T16:30:23.795Z,34.04
2022-08-26T16:32:51.224Z,33.97
2022-08-26T16:35:18.459Z,33.95
2022-08-26T16:37:45.866Z,33.92
2022-08-26T16:40:13.426Z,33.87
2022-08-26T16:42:40.642Z,33.75
2022-08-26T16:45:08.118Z,33.69
2022-08-26T16:47:35.613Z,33.65
2022-08-26T16:50:04.042Z,33.50
2022-08-26T16:52:31.527Z,33.33
2022-08-26T16:54:59.087Z,33.30
2022-08-26T16:57:26.283Z,33.24
2022-08-26T16:59:53.489Z,33.12
2022-08-26T17:02:21.016Z,33.01
2022-08-26T17:04:50.348Z,32.98
2022-08-26T17:07:17.668Z,32.91
2022-08-26T17:09:45.117Z,32.84
2022-08-26T17:12:12.382Z,32.61
2022-08-26T17:14:39.601Z,32.68
2022-08-26T17:17:07.116Z,32.45
2022-08-26T17:19:40.744Z,32.48
2022-08-26T17:22:14.714Z,32.38
2022-08-26T17:24:41.914Z,32.22
2022-08-26T17:27:09.077Z,32.30
2022-08-26T17:29:36.536Z,32.27
2022-08-26T17:32:03.932Z,32.22
2022-08-26T17:34:31.117Z,32.15
2022-08-26T17:36:59.409Z,31.95
2022-08-26T17:39:27.604Z,31.99
2022-08-26T17:41:54.780Z,31.92
2022-08-26T17:44:22.235Z,31.91
2022-08-26T17:46:49.472Z,31.87
2022-08-26T17:49:17.327Z,31.72
2022-08-26T17:51:45.162Z,31.59
2022-08-26T17:54:12.363Z,31.57
2022-08-26T17:56:39.598Z,31.48
2022-08-26T17:59:07.929Z,31.41
2022-08-26T18:01:35.401Z,31.33
2022-08-26T18:04:03.142Z,31.22
2022-08-26T18:06:31.691Z,31.16
2022-08-26T18:08:59.075Z,31.07
2022-08-26T18:11:27.167Z,30.99
2022-08-26T18:13:54.382Z,30.93
2022-08-26T18:16:21.725Z,30.94
2022-08-26T18:18:53.254Z,30.78
2022-08-26T18:21:22.085Z,30.77
2022-08-26T18:23:49.846Z,30.70
2022-08-26T18:26:21.762Z,30.64
2022-08-26T18:28:49.016Z,30.51
2022-08-26T18:31:16.530Z,30.29
2022-08-26T18:33:44.172Z,30.32
2022-08-26T18:36:18.498Z,30.24
2022-08-26T18:38:46.663Z,30.31
2022-08-26T18:41:13.867Z,29.68
2022-08-26T18:43:41.033Z,29.84
2022-08-26T18:46:09.317Z,29.86
2022-08-26T18:48:39.694Z,29.96
2022-08-26T18:51:06.957Z,29.87
2022-08-26T18:53:37.697Z,29.92
2022-08-26T18:56:05.629Z,29.89
2022-08-26T18:58:33.019Z,29.84
2022-08-26T19:01:00.538Z,29.87
2022-08-26T19:03:28.798Z,29.83
2022-08-26T19:05:56.369Z,29.78
2022-08-26T19:08:23.835Z,29.57
2022-08-26T19:10:51.151Z,29.57
2022-08-26T19:13:20.704Z,29.56
2022-08-26T19:15:48.301Z,29.48
2022-08-26T19:18:16.880Z,29.35
2022-08-26T19:20:46.773Z,29.35
2022-08-26T19:23:30.802Z,29.15
2022-08-26T19:25:58.675Z,29.19
2022-08-26T19:28:26.445Z,29.15
2022-08-26T19:30:53.875Z,29.13
2022-08-26T19:33:21.992Z,29.16
2022-08-26T19:35:49.787Z,29.09
2022-08-26T19:38:17.288Z,29.03
2022-08-26T19:40:45.562Z,28.86
2022-08-26T19:43:13.547Z,28.80
2022-08-26T19:45:42.187Z,28.84
2022-08-26T19:48:11.665Z,28.90
2022-08-26T19:50:39.568Z,28.85
2022-08-26T19:53:07.120Z,28.79
2022-08-26T19:55:35.167Z,28.78
2022-08-26T19:58:03.036Z,28.67
2022-08-26T20:00:32.063Z,28.63
2022-08-26T20:03:00.398Z,28.66
2022-08-26T20:05:28.071Z,28.42
2022-08-26T20:07:55.718Z,28.48
2022-08-26T20:10:23.951Z,28.50
2022-08-26T20:12:52.488Z,28.27
2022-08-26T20:15:20.828Z,28.20
2022-08-26T20:17:49.347Z,28.28
2022-08-26T20:20:35.570Z,28.32
2022-08-26T20:23:04.712Z,28.26
2022-08-26T20:25:32.801Z,28.30
2022-08-26T20:28:00.325Z,28.22
2022-08-26T20:30:28.885Z,28.09
2022-08-26T20:32:56.245Z,28.15
2022-08-26T20:35:24.099Z,28.10
2022-08-26T20:37:51.759Z,28.10
2022-08-26T20:40:19.078Z,28.05
2022-08-26T20:42:46.424Z,28.10
2022-08-26T20:45:13.922Z,28.00
2022-08-26T20:47:43.669Z,28.11
2022-08-26T20:50:10.997Z,28.09
2022-08-26T20:52:38.468Z,27.97
2022-08-26T20:55:06.132Z,27.97
2022-08-26T20:57:33.753Z,27.88
2022-08-26T21:00:01.234Z,27.74
2022-08-26T21:02:28.592Z,27.77
2022-08-26T21:04:55.855Z,27.90
2022-08-26T21:07:23.382Z,27.80
2022-08-26T21:09:51.645Z,27.76
2022-08-26T21:12:18.964Z,27.61
2022-08-26T21:14:49.487Z,27.75
2022-08-26T21:17:16.926Z,27.74
2022-08-26T21:19:44.496Z,27.65
2022-08-26T21:22:12.433Z,27.66
2022-08-26T21:24:39.695Z,27.54
2022-08-26T21:27:06.925Z,27.61
2022-08-26T21:29:34.404Z,27.60
2022-08-26T21:32:01.677Z,27.64
2022-08-26T21:34:28.962Z,27.51
2022-08-26T21:36:56.549Z,27.43
2022-08-26T21:39:23.801Z,27.42
2022-08-26T21:41:51.208Z,27.45
2022-08-26T21:44:18.692Z,27.45
2022-08-26T21:46:46.201Z,27.37
2022-08-26T21:49:14.563Z,27.42
2022-08-26T21:51:43.911Z,27.30
2022-08-26T21:54:12.177Z,27.40
2022-08-26T21:56:42.059Z,27.39
2022-08-26T21:59:09.569Z,27.27
2022-08-26T22:01:37.782Z,27.26
2022-08-26T22:04:06.010Z,27.15
2022-08-26T22:06:33.827Z,27.11
2022-08-26T22:09:01.076Z,27.19
2022-08-26T22:11:28.708Z,27.12
2022-08-26T22:13:56.971Z,27.17
2022-08-26T22:16:26.878Z,26.97
2022-08-26T22:18:55.257Z,27.04
2022-08-26T22:21:27.121Z,27.05
2022-08-26T22:23:57.977Z,26.95
2022-08-26T22:26:27.941Z,26.93
2022-08-26T22:28:58.986Z,26.92
2022-08-26T22:31:28.102Z,26.95
2022-08-26T22:34:06.526Z,26.94
2022-08-26T22:36:33.737Z,26.85
2022-08-26T22:39:00.932Z,26.83
2022-08-26T22:41:28.447Z,26.84
2022-08-26T22:44:03.843Z,26.93
2022-08-26T22:46:31.737Z,26.79
2022-08-26T22:48:58.926Z,26.78
2022-08-26T22:51:27.868Z,26.80
2022-08-26T22:53:55.370Z,26.70
2022-08-26T22:56:22.628Z,26.65
2022-08-26T22:58:49.870Z,26.56
2022-08-26T23:01:17.390Z,26.47
2022-08-26T23:03:44.871Z,26.49
2022-08-26T23:06:12.112Z,26.56
2022-08-26T23:08:40.747Z,26.41
2022-08-26T23:11:08.748Z,26.48
2022-08-26T23:13:36.482Z,26.43
2022-08-26T23:16:06.538Z,26.46
2022-08-26T23:18:33.754Z,26.26
2022-08-26T23:21:00.981Z,26.34
2022-08-26T23:23:28.492Z,26.29
2022-08-26T23:25:55.768Z,26.24
2022-08-26T23:28:23.319Z,26.19
2022-08-26T23:30:50.828Z,26.26
2022-08-26T23:33:18.025Z,26.28
2022-08-26T23:35:45.257Z,26.14
2022-08-26T23:38:14.398Z,26.10
2022-08-26T23:40:42.014Z,26.07
2022-08-26T23:43:11.391Z,26.02
2022-08-26T23:45:39.080Z,25.93
2022-08-26T23:48:06.545Z,25.96
2022-08-26T23:50:52.290Z,25.70
2022-08-26T23:53:21.050Z,25.87
2022-08-26T23:55:49.001Z,25.66
2022-08-26T23:58:17.104Z,25.76
